sensor_id;sensor_type;location;lat;lon;timestamp;P1;durP1;ratioP1;P2;durP2;ratioP2
67503;SDS011;54351;49.108;1.502;2023-01-19T00:01:24;454.95;;;412.83;;
67503;SDS011;54351;49.108;1.502;2023-01-19T00:03:50;436.27;;;399.63;;
67503;SDS011;54351;49.108;1.502;2023-01-19T00:06:16;392.63;;;359.85;;
67503;SDS011;54351;49.108;1.502;2023-01-19T00:08:43;510.30;;;395.48;;
67503;SDS011;54351;49.108;1.502;2023-01-19T00:11:12;577.55;;;460.73;;
67503;SDS011;54351;49.108;1.502;2023-01-19T00:13:38;533.03;;;456.42;;
67503;SDS011;54351;49.108;1.502;2023-01-19T00:16:05;533.42;;;444.40;;
67503;SDS011;54351;49.108;1.502;2023-01-19T00:18:31;543.58;;;486.58;;
67503;SDS011;54351;49.108;1.502;2023-01-19T00:20:57;463.27;;;413.73;;
67503;SDS011;54351;49.108;1.502;2023-01-19T00:23:23;699.85;;;445.52;;
67503;SDS011;54351;49.108;1.502;2023-01-19T00:25:50;534.72;;;475.35;;
67503;SDS011;54351;49.108;1.502;2023-01-19T00:28:16;646.67;;;529.55;;
67503;SDS011;54351;49.108;1.502;2023-01-19T00:30:43;549.95;;;473.45;;
67503;SDS011;54351;49.108;1.502;2023-01-19T00:33:10;705.90;;;493.27;;
67503;SDS011;54351;49.108;1.502;2023-01-19T00:35:39;502.15;;;456.95;;
67503;SDS011;54351;49.108;1.502;2023-01-19T00:38:06;514.28;;;461.58;;
67503;SDS011;54351;49.108;1.502;2023-01-19T00:40:33;500.05;;;446.77;;
67503;SDS011;54351;49.108;1.502;2023-01-19T00:42:59;544.42;;;498.35;;
67503;SDS011;54351;49.108;1.502;2023-01-19T00:45:25;534.83;;;487.70;;
67503;SDS011;54351;49.108;1.502;2023-01-19T00:47:51;537.42;;;490.27;;
67503;SDS011;54351;49.108;1.502;2023-01-19T00:50:23;497.30;;;454.75;;
67503;SDS011;54351;49.108;1.502;2023-01-19T00:52:51;440.42;;;402.70;;
67503;SDS011;54351;49.108;1.502;2023-01-19T00:55:17;492.05;;;449.40;;
67503;SDS011;54351;49.108;1.502;2023-01-19T00:57:43;577.05;;;525.33;;
67503;SDS011;54351;49.108;1.502;2023-01-19T01:00:13;554.13;;;508.60;;
67503;SDS011;54351;49.108;1.502;2023-01-19T01:02:40;540.90;;;496.27;;
67503;SDS011;54351;49.108;1.502;2023-01-19T01:05:06;547.03;;;503.77;;
67503;SDS011;54351;49.108;1.502;2023-01-19T01:07:33;531.20;;;488.58;;
67503;SDS011;54351;49.108;1.502;2023-01-19T01:10:08;570.60;;;525.60;;
67503;SDS011;54351;49.108;1.502;2023-01-19T01:12:35;566.55;;;522.25;;
67503;SDS011;54351;49.108;1.502;2023-01-19T01:15:01;538.28;;;495.02;;
67503;SDS011;54351;49.108;1.502;2023-01-19T01:17:27;570.50;;;525.55;;
67503;SDS011;54351;49.108;1.502;2023-01-19T01:19:53;555.15;;;511.25;;
67503;SDS011;54351;49.108;1.502;2023-01-19T01:22:19;552.83;;;510.00;;
67503;SDS011;54351;49.108;1.502;2023-01-19T01:24:45;584.97;;;538.85;;
67503;SDS011;54351;49.108;1.502;2023-01-19T01:27:11;587.65;;;541.50;;
67503;SDS011;54351;49.108;1.502;2023-01-19T01:29:37;520.72;;;479.55;;
67503;SDS011;54351;49.108;1.502;2023-01-19T01:32:05;441.33;;;406.73;;
67503;SDS011;54351;49.108;1.502;2023-01-19T01:34:32;486.10;;;447.27;;
67503;SDS011;54351;49.108;1.502;2023-01-19T01:36:58;470.15;;;433.67;;
67503;SDS011;54351;49.108;1.502;2023-01-19T01:39:24;524.50;;;482.02;;
67503;SDS011;54351;49.108;1.502;2023-01-19T01:41:51;541.70;;;498.67;;
67503;SDS011;54351;49.108;1.502;2023-01-19T01:47:01;535.88;;;493.20;;
67503;SDS011;54351;49.108;1.502;2023-01-19T01:49:28;569.40;;;525.00;;
67503;SDS011;54351;49.108;1.502;2023-01-19T01:51:54;587.95;;;542.30;;
67503;SDS011;54351;49.108;1.502;2023-01-19T01:54:25;584.17;;;538.13;;
67503;SDS011;54351;49.108;1.502;2023-01-19T01:56:52;537.88;;;494.85;;
67503;SDS011;54351;49.108;1.502;2023-01-19T01:59:27;569.47;;;524.75;;
67503;SDS011;54351;49.108;1.502;2023-01-19T02:02:00;592.45;;;546.90;;
67503;SDS011;54351;49.108;1.502;2023-01-19T02:04:47;550.92;;;507.80;;
67503;SDS011;54351;49.108;1.502;2023-01-19T02:07:14;576.22;;;531.45;;
67503;SDS011;54351;49.108;1.502;2023-01-19T02:10:01;552.60;;;509.05;;
67503;SDS011;54351;49.108;1.502;2023-01-19T02:12:45;570.72;;;526.33;;
67503;SDS011;54351;49.108;1.502;2023-01-19T02:15:30;530.80;;;489.23;;
67503;SDS011;54351;49.108;1.502;2023-01-19T02:17:56;570.70;;;526.72;;
67503;SDS011;54351;49.108;1.502;2023-01-19T02:20:22;569.55;;;525.22;;
67503;SDS011;54351;49.108;1.502;2023-01-19T02:22:50;580.42;;;535.45;;
67503;SDS011;54351;49.108;1.502;2023-01-19T02:25:18;550.83;;;508.15;;
67503;SDS011;54351;49.108;1.502;2023-01-19T02:27:44;522.38;;;482.23;;
67503;SDS011;54351;49.108;1.502;2023-01-19T02:30:11;529.30;;;488.13;;
67503;SDS011;54351;49.108;1.502;2023-01-19T02:32:40;497.20;;;459.05;;
67503;SDS011;54351;49.108;1.502;2023-01-19T02:35:06;563.90;;;521.63;;
67503;SDS011;54351;49.108;1.502;2023-01-19T02:37:33;541.58;;;500.58;;
67503;SDS011;54351;49.108;1.502;2023-01-19T02:40:02;555.78;;;513.35;;
67503;SDS011;54351;49.108;1.502;2023-01-19T02:42:31;588.15;;;543.88;;
67503;SDS011;54351;49.108;1.502;2023-01-19T02:44:59;522.33;;;482.25;;
67503;SDS011;54351;49.108;1.502;2023-01-19T02:47:36;490.73;;;453.02;;
67503;SDS011;54351;49.108;1.502;2023-01-19T02:50:03;510.25;;;471.52;;
67503;SDS011;54351;49.108;1.502;2023-01-19T02:52:29;558.30;;;515.50;;
67503;SDS011;54351;49.108;1.502;2023-01-19T02:57:42;542.70;;;501.13;;
67503;SDS011;54351;49.108;1.502;2023-01-19T03:00:20;583.92;;;539.58;;
67503;SDS011;54351;49.108;1.502;2023-01-19T03:10:50;554.45;;;512.28;;
67503;SDS011;54351;49.108;1.502;2023-01-19T03:15:56;511.55;;;472.50;;
67503;SDS011;54351;49.108;1.502;2023-01-19T03:18:24;582.58;;;538.35;;
67503;SDS011;54351;49.108;1.502;2023-01-19T03:20:52;580.67;;;536.15;;
67503;SDS011;54351;49.108;1.502;2023-01-19T03:23:20;531.53;;;491.35;;
67503;SDS011;54351;49.108;1.502;2023-01-19T03:25:48;523.13;;;483.95;;
67503;SDS011;54351;49.108;1.502;2023-01-19T03:28:15;474.65;;;439.08;;
67503;SDS011;54351;49.108;1.502;2023-01-19T03:30:43;523.95;;;484.20;;
67503;SDS011;54351;49.108;1.502;2023-01-19T03:33:16;594.10;;;549.05;;
67503;SDS011;54351;49.108;1.502;2023-01-19T03:35:47;464.75;;;429.70;;
67503;SDS011;54351;49.108;1.502;2023-01-19T03:38:14;506.92;;;468.08;;
67503;SDS011;54351;49.108;1.502;2023-01-19T03:40:41;549.42;;;508.17;;
67503;SDS011;54351;49.108;1.502;2023-01-19T03:43:07;538.30;;;497.50;;
67503;SDS011;54351;49.108;1.502;2023-01-19T03:45:35;576.58;;;532.42;;
67503;SDS011;54351;49.108;1.502;2023-01-19T03:48:03;557.13;;;515.45;;
67503;SDS011;54351;49.108;1.502;2023-01-19T03:50:29;590.45;;;545.30;;
67503;SDS011;54351;49.108;1.502;2023-01-19T03:53:06;578.58;;;535.22;;
67503;SDS011;54351;49.108;1.502;2023-01-19T03:55:33;514.55;;;475.63;;
67503;SDS011;54351;49.108;1.502;2023-01-19T03:57:59;511.83;;;473.88;;
67503;SDS011;54351;49.108;1.502;2023-01-19T04:00:25;488.13;;;451.17;;
67503;SDS011;54351;49.108;1.502;2023-01-19T04:02:51;536.10;;;495.67;;
67503;SDS011;54351;49.108;1.502;2023-01-19T04:05:17;474.35;;;438.63;;
67503;SDS011;54351;49.108;1.502;2023-01-19T04:07:43;566.50;;;523.28;;
67503;SDS011;54351;49.108;1.502;2023-01-19T04:10:10;487.80;;;451.10;;
67503;SDS011;54351;49.108;1.502;2023-01-19T04:12:37;551.97;;;509.80;;
67503;SDS011;54351;49.108;1.502;2023-01-19T04:15:06;567.63;;;524.53;;
67503;SDS011;54351;49.108;1.502;2023-01-19T04:17:32;509.05;;;470.35;;
67503;SDS011;54351;49.108;1.502;2023-01-19T04:19:59;559.38;;;517.13;;
67503;SDS011;54351;49.108;1.502;2023-01-19T04:22:25;495.33;;;457.90;;
67503;SDS011;54351;49.108;1.502;2023-01-19T04:24:51;510.92;;;473.70;;
67503;SDS011;54351;49.108;1.502;2023-01-19T04:27:17;557.13;;;514.28;;
67503;SDS011;54351;49.108;1.502;2023-01-19T04:29:43;573.88;;;530.90;;
67503;SDS011;54351;49.108;1.502;2023-01-19T04:32:09;543.72;;;502.88;;
67503;SDS011;54351;49.108;1.502;2023-01-19T04:34:35;579.65;;;536.10;;
67503;SDS011;54351;49.108;1.502;2023-01-19T04:37:01;574.75;;;531.53;;
67503;SDS011;54351;49.108;1.502;2023-01-19T04:39:27;581.95;;;537.90;;
67503;SDS011;54351;49.108;1.502;2023-01-19T04:41:53;586.58;;;543.13;;
67503;SDS011;54351;49.108;1.502;2023-01-19T04:44:21;576.22;;;532.55;;
67503;SDS011;54351;49.108;1.502;2023-01-19T04:46:47;584.30;;;540.42;;
67503;SDS011;54351;49.108;1.502;2023-01-19T04:49:15;552.47;;;510.98;;
67503;SDS011;54351;49.108;1.502;2023-01-19T04:51:41;500.75;;;462.40;;
67503;SDS011;54351;49.108;1.502;2023-01-19T04:54:07;547.92;;;506.70;;
67503;SDS011;54351;49.108;1.502;2023-01-19T04:56:34;495.50;;;458.55;;
67503;SDS011;54351;49.108;1.502;2023-01-19T04:59:00;537.60;;;497.38;;
67503;SDS011;54351;49.108;1.502;2023-01-19T05:01:26;470.77;;;435.67;;
67503;SDS011;54351;49.108;1.502;2023-01-19T05:03:52;507.92;;;469.13;;
67503;SDS011;54351;49.108;1.502;2023-01-19T05:06:18;517.63;;;478.73;;
67503;SDS011;54351;49.108;1.502;2023-01-19T05:08:44;530.20;;;490.88;;
67503;SDS011;54351;49.108;1.502;2023-01-19T05:11:10;517.95;;;479.33;;
67503;SDS011;54351;49.108;1.502;2023-01-19T05:13:36;582.38;;;538.17;;
67503;SDS011;54351;49.108;1.502;2023-01-19T05:16:03;554.13;;;512.85;;
67503;SDS011;54351;49.108;1.502;2023-01-19T05:18:30;500.10;;;462.30;;
67503;SDS011;54351;49.108;1.502;2023-01-19T05:21:00;550.60;;;509.30;;
67503;SDS011;54351;49.108;1.502;2023-01-19T05:23:26;531.97;;;491.45;;
67503;SDS011;54351;49.108;1.502;2023-01-19T05:25:52;540.08;;;498.60;;
67503;SDS011;54351;49.108;1.502;2023-01-19T05:28:20;545.90;;;504.30;;
67503;SDS011;54351;49.108;1.502;2023-01-19T05:30:48;572.45;;;529.38;;
67503;SDS011;54351;49.108;1.502;2023-01-19T05:33:14;554.63;;;513.30;;
67503;SDS011;54351;49.108;1.502;2023-01-19T05:35:40;581.08;;;537.03;;
67503;SDS011;54351;49.108;1.502;2023-01-19T05:38:06;578.88;;;534.95;;
67503;SDS011;54351;49.108;1.502;2023-01-19T05:40:32;552.50;;;511.58;;
67503;SDS011;54351;49.108;1.502;2023-01-19T05:42:58;531.53;;;491.48;;
67503;SDS011;54351;49.108;1.502;2023-01-19T05:45:25;594.50;;;548.95;;
67503;SDS011;54351;49.108;1.502;2023-01-19T05:47:55;537.67;;;495.67;;
67503;SDS011;54351;49.108;1.502;2023-01-19T05:50:21;594.80;;;549.25;;
67503;SDS011;54351;49.108;1.502;2023-01-19T05:52:47;607.88;;;561.28;;
67503;SDS011;54351;49.108;1.502;2023-01-19T05:55:13;577.65;;;533.95;;
67503;SDS011;54351;49.108;1.502;2023-01-19T05:57:40;559.97;;;517.90;;
67503;SDS011;54351;49.108;1.502;2023-01-19T06:00:07;625.97;;;578.47;;
67503;SDS011;54351;49.108;1.502;2023-01-19T06:02:33;625.22;;;578.35;;
67503;SDS011;54351;49.108;1.502;2023-01-19T06:04:59;521.08;;;481.80;;
67503;SDS011;54351;49.108;1.502;2023-01-19T06:07:26;506.10;;;468.52;;
67503;SDS011;54351;49.108;1.502;2023-01-19T06:09:52;505.77;;;468.42;;
67503;SDS011;54351;49.108;1.502;2023-01-19T06:12:18;310.50;;;289.73;;
67503;SDS011;54351;49.108;1.502;2023-01-19T06:14:44;212.45;;;199.90;;
67503;SDS011;54351;49.108;1.502;2023-01-19T06:17:10;198.90;;;187.57;;
67503;SDS011;54351;49.108;1.502;2023-01-19T06:19:36;264.90;;;248.73;;
67503;SDS011;54351;49.108;1.502;2023-01-19T06:22:02;181.88;;;171.32;;
67503;SDS011;54351;49.108;1.502;2023-01-19T06:24:28;198.27;;;186.35;;
67503;SDS011;54351;49.108;1.502;2023-01-19T06:26:54;252.75;;;235.85;;
67503;SDS011;54351;49.108;1.502;2023-01-19T06:29:20;316.00;;;293.98;;
67503;SDS011;54351;49.108;1.502;2023-01-19T06:31:47;245.27;;;228.63;;
67503;SDS011;54351;49.108;1.502;2023-01-19T06:34:13;248.15;;;232.43;;
67503;SDS011;54351;49.108;1.502;2023-01-19T06:36:39;315.65;;;293.45;;
67503;SDS011;54351;49.108;1.502;2023-01-19T06:39:07;420.60;;;388.63;;
67503;SDS011;54351;49.108;1.502;2023-01-19T06:41:34;431.30;;;398.83;;
67503;SDS011;54351;49.108;1.502;2023-01-19T06:44:00;360.52;;;332.95;;
67503;SDS011;54351;49.108;1.502;2023-01-19T06:46:26;507.30;;;469.33;;
67503;SDS011;54351;49.108;1.502;2023-01-19T06:48:52;460.45;;;425.45;;
67503;SDS011;54351;49.108;1.502;2023-01-19T06:51:19;505.90;;;466.55;;
67503;SDS011;54351;49.108;1.502;2023-01-19T06:53:45;438.08;;;406.17;;
67503;SDS011;54351;49.108;1.502;2023-01-19T06:56:11;395.27;;;368.38;;
67503;SDS011;54351;49.108;1.502;2023-01-19T06:58:37;317.52;;;297.55;;
67503;SDS011;54351;49.108;1.502;2023-01-19T07:01:04;343.33;;;320.88;;
67503;SDS011;54351;49.108;1.502;2023-01-19T07:03:31;376.88;;;349.48;;
67503;SDS011;54351;49.108;1.502;2023-01-19T07:05:57;458.15;;;423.38;;
67503;SDS011;54351;49.108;1.502;2023-01-19T07:08:26;441.60;;;408.48;;
67503;SDS011;54351;49.108;1.502;2023-01-19T07:10:57;499.05;;;460.95;;
67503;SDS011;54351;49.108;1.502;2023-01-19T07:13:23;470.77;;;434.05;;
67503;SDS011;54351;49.108;1.502;2023-01-19T07:15:49;513.47;;;473.83;;
67503;SDS011;54351;49.108;1.502;2023-01-19T07:18:15;549.70;;;507.10;;
67503;SDS011;54351;49.108;1.502;2023-01-19T07:20:41;534.60;;;492.80;;
67503;SDS011;54351;49.108;1.502;2023-01-19T07:23:09;556.53;;;515.33;;
67503;SDS011;54351;49.108;1.502;2023-01-19T07:25:36;518.22;;;478.25;;
67503;SDS011;54351;49.108;1.502;2023-01-19T07:28:03;484.52;;;447.02;;
67503;SDS011;54351;49.108;1.502;2023-01-19T07:30:29;532.08;;;490.80;;
67503;SDS011;54351;49.108;1.502;2023-01-19T07:32:55;600.17;;;554.05;;
67503;SDS011;54351;49.108;1.502;2023-01-19T07:35:22;591.05;;;546.00;;
67503;SDS011;54351;49.108;1.502;2023-01-19T07:37:48;583.05;;;538.50;;
67503;SDS011;54351;49.108;1.502;2023-01-19T07:40:15;498.20;;;460.30;;
67503;SDS011;54351;49.108;1.502;2023-01-19T07:42:47;557.47;;;514.88;;
67503;SDS011;54351;49.108;1.502;2023-01-19T07:45:15;480.17;;;443.88;;
67503;SDS011;54351;49.108;1.502;2023-01-19T07:47:42;511.95;;;472.75;;
67503;SDS011;54351;49.108;1.502;2023-01-19T07:50:09;545.58;;;504.80;;
67503;SDS011;54351;49.108;1.502;2023-01-19T07:52:35;565.97;;;523.00;;
67503;SDS011;54351;49.108;1.502;2023-01-19T07:55:01;552.75;;;510.42;;
67503;SDS011;54351;49.108;1.502;2023-01-19T07:57:27;576.00;;;531.92;;
67503;SDS011;54351;49.108;1.502;2023-01-19T07:59:53;609.70;;;563.58;;
67503;SDS011;54351;49.108;1.502;2023-01-19T08:02:20;556.60;;;513.85;;
67503;SDS011;54351;49.108;1.502;2023-01-19T08:04:49;568.00;;;524.83;;
67503;SDS011;54351;49.108;1.502;2023-01-19T08:07:15;544.72;;;503.55;;
67503;SDS011;54351;49.108;1.502;2023-01-19T08:09:42;512.60;;;472.75;;
67503;SDS011;54351;49.108;1.502;2023-01-19T08:12:08;541.45;;;498.88;;
67503;SDS011;54351;49.108;1.502;2023-01-19T08:14:34;552.92;;;510.63;;
67503;SDS011;54351;49.108;1.502;2023-01-19T08:17:01;539.53;;;498.80;;
67503;SDS011;54351;49.108;1.502;2023-01-19T08:19:27;535.15;;;494.70;;
67503;SDS011;54351;49.108;1.502;2023-01-19T08:21:53;502.85;;;464.02;;
67503;SDS011;54351;49.108;1.502;2023-01-19T08:24:20;497.17;;;459.33;;
67503;SDS011;54351;49.108;1.502;2023-01-19T08:26:49;489.70;;;452.95;;
67503;SDS011;54351;49.108;1.502;2023-01-19T08:29:15;402.38;;;372.10;;
67503;SDS011;54351;49.108;1.502;2023-01-19T08:31:43;366.52;;;339.52;;
67503;SDS011;54351;49.108;1.502;2023-01-19T08:34:09;418.75;;;387.35;;
67503;SDS011;54351;49.108;1.502;2023-01-19T08:36:35;360.33;;;333.85;;
67503;SDS011;54351;49.108;1.502;2023-01-19T08:39:01;327.50;;;303.27;;
67503;SDS011;54351;49.108;1.502;2023-01-19T08:41:27;359.02;;;332.48;;
67503;SDS011;54351;49.108;1.502;2023-01-19T08:43:53;400.40;;;370.70;;
67503;SDS011;54351;49.108;1.502;2023-01-19T08:46:19;338.83;;;313.88;;
67503;SDS011;54351;49.108;1.502;2023-01-19T08:48:46;322.42;;;298.73;;
67503;SDS011;54351;49.108;1.502;2023-01-19T08:51:13;383.75;;;355.83;;
67503;SDS011;54351;49.108;1.502;2023-01-19T08:53:40;365.02;;;338.25;;
67503;SDS011;54351;49.108;1.502;2023-01-19T08:56:07;332.40;;;307.48;;
67503;SDS011;54351;49.108;1.502;2023-01-19T08:58:39;298.75;;;276.75;;
67503;SDS011;54351;49.108;1.502;2023-01-19T09:01:06;377.73;;;350.05;;
67503;SDS011;54351;49.108;1.502;2023-01-19T09:03:33;335.58;;;310.38;;
67503;SDS011;54351;49.108;1.502;2023-01-19T09:06:00;325.73;;;302.13;;
67503;SDS011;54351;49.108;1.502;2023-01-19T09:08:27;330.13;;;306.05;;
67503;SDS011;54351;49.108;1.502;2023-01-19T09:10:53;317.77;;;294.27;;
67503;SDS011;54351;49.108;1.502;2023-01-19T09:13:19;311.60;;;288.35;;
67503;SDS011;54351;49.108;1.502;2023-01-19T09:15:45;378.60;;;350.92;;
67503;SDS011;54351;49.108;1.502;2023-01-19T09:18:12;364.20;;;337.55;;
67503;SDS011;54351;49.108;1.502;2023-01-19T09:20:42;344.88;;;319.58;;
67503;SDS011;54351;49.108;1.502;2023-01-19T09:23:09;438.65;;;404.95;;
67503;SDS011;54351;49.108;1.502;2023-01-19T09:25:36;418.42;;;387.02;;
67503;SDS011;54351;49.108;1.502;2023-01-19T09:28:03;445.23;;;411.92;;
67503;SDS011;54351;49.108;1.502;2023-01-19T09:30:29;383.13;;;355.33;;
67503;SDS011;54351;49.108;1.502;2023-01-19T09:33:00;381.88;;;353.58;;
67503;SDS011;54351;49.108;1.502;2023-01-19T09:35:27;406.45;;;375.90;;
67503;SDS011;54351;49.108;1.502;2023-01-19T09:37:53;426.70;;;394.77;;
67503;SDS011;54351;49.108;1.502;2023-01-19T09:40:19;416.92;;;385.52;;
67503;SDS011;54351;49.108;1.502;2023-01-19T09:45:34;466.80;;;430.63;;
67503;SDS011;54351;49.108;1.502;2023-01-19T09:48:01;437.30;;;404.00;;
67503;SDS011;54351;49.108;1.502;2023-01-19T09:50:36;473.10;;;437.45;;
67503;SDS011;54351;49.108;1.502;2023-01-19T09:53:06;453.02;;;419.20;;
67503;SDS011;54351;49.108;1.502;2023-01-19T09:55:37;414.98;;;384.52;;
67503;SDS011;54351;49.108;1.502;2023-01-19T09:58:10;454.08;;;420.15;;
67503;SDS011;54351;49.108;1.502;2023-01-19T10:00:37;458.27;;;422.00;;
67503;SDS011;54351;49.108;1.502;2023-01-19T10:03:15;465.52;;;431.02;;
67503;SDS011;54351;49.108;1.502;2023-01-19T10:11:04;437.90;;;404.52;;
67503;SDS011;54351;49.108;1.502;2023-01-19T10:18:46;470.13;;;434.42;;
67503;SDS011;54351;49.108;1.502;2023-01-19T10:21:23;465.13;;;429.48;;
67503;SDS011;54351;49.108;1.502;2023-01-19T10:23:56;470.60;;;435.40;;
67503;SDS011;54351;49.108;1.502;2023-01-19T10:26:24;454.63;;;419.52;;
67503;SDS011;54351;49.108;1.502;2023-01-19T10:28:52;462.15;;;427.27;;
67503;SDS011;54351;49.108;1.502;2023-01-19T10:31:20;429.63;;;396.67;;
67503;SDS011;54351;49.108;1.502;2023-01-19T10:33:50;435.90;;;403.00;;
67503;SDS011;54351;49.108;1.502;2023-01-19T10:36:24;471.15;;;435.05;;
67503;SDS011;54351;49.108;1.502;2023-01-19T10:38:53;476.52;;;440.30;;
67503;SDS011;54351;49.108;1.502;2023-01-19T10:41:20;467.88;;;432.65;;
67503;SDS011;54351;49.108;1.502;2023-01-19T10:43:53;454.83;;;419.20;;
67503;SDS011;54351;49.108;1.502;2023-01-19T10:48:58;497.75;;;460.60;;
67503;SDS011;54351;49.108;1.502;2023-01-19T10:51:24;466.90;;;431.70;;
67503;SDS011;54351;49.108;1.502;2023-01-19T10:54:00;501.40;;;464.05;;
67503;SDS011;54351;49.108;1.502;2023-01-19T10:56:29;477.40;;;441.33;;
67503;SDS011;54351;49.108;1.502;2023-01-19T10:58:58;489.67;;;453.15;;
67503;SDS011;54351;49.108;1.502;2023-01-19T11:01:25;439.70;;;405.77;;
67503;SDS011;54351;49.108;1.502;2023-01-19T11:03:52;433.60;;;402.05;;
67503;SDS011;54351;49.108;1.502;2023-01-19T11:06:23;389.42;;;361.95;;
67503;SDS011;54351;49.108;1.502;2023-01-19T11:08:50;396.75;;;367.83;;
67503;SDS011;54351;49.108;1.502;2023-01-19T11:11:19;329.17;;;306.15;;
67503;SDS011;54351;49.108;1.502;2023-01-19T11:14:00;343.63;;;319.70;;
67503;SDS011;54351;49.108;1.502;2023-01-19T11:16:28;415.83;;;385.73;;
67503;SDS011;54351;49.108;1.502;2023-01-19T11:18:55;426.75;;;395.60;;
67503;SDS011;54351;49.108;1.502;2023-01-19T11:21:23;376.27;;;349.52;;
67503;SDS011;54351;49.108;1.502;2023-01-19T11:23:50;344.55;;;321.17;;
67503;SDS011;54351;49.108;1.502;2023-01-19T11:28:56;320.73;;;299.20;;
67503;SDS011;54351;49.108;1.502;2023-01-19T11:33:54;340.67;;;316.58;;
67503;SDS011;54351;49.108;1.502;2023-01-19T11:36:24;322.27;;;300.27;;
67503;SDS011;54351;49.108;1.502;2023-01-19T11:38:54;332.05;;;309.48;;
67503;SDS011;54351;49.108;1.502;2023-01-19T11:41:28;335.25;;;312.05;;
67503;SDS011;54351;49.108;1.502;2023-01-19T11:43:55;310.27;;;289.63;;
67503;SDS011;54351;49.108;1.502;2023-01-19T11:46:23;280.65;;;262.42;;
67503;SDS011;54351;49.108;1.502;2023-01-19T11:48:52;293.13;;;273.85;;
67503;SDS011;54351;49.108;1.502;2023-01-19T11:51:27;261.90;;;244.98;;
67503;SDS011;54351;49.108;1.502;2023-01-19T11:53:54;255.52;;;239.15;;
67503;SDS011;54351;49.108;1.502;2023-01-19T11:56:25;197.50;;;185.32;;
67503;SDS011;54351;49.108;1.502;2023-01-19T11:58:53;182.02;;;170.60;;
67503;SDS011;54351;49.108;1.502;2023-01-19T12:01:23;164.52;;;154.38;;
67503;SDS011;54351;49.108;1.502;2023-01-19T12:06:18;215.73;;;202.45;;
67503;SDS011;54351;49.108;1.502;2023-01-19T12:08:50;237.18;;;222.07;;
67503;SDS011;54351;49.108;1.502;2023-01-19T12:11:20;214.98;;;201.50;;
67503;SDS011;54351;49.108;1.502;2023-01-19T12:13:47;208.98;;;195.85;;
67503;SDS011;54351;49.108;1.502;2023-01-19T12:16:18;183.20;;;172.10;;
67503;SDS011;54351;49.108;1.502;2023-01-19T12:19:09;214.52;;;201.07;;
67503;SDS011;54351;49.108;1.502;2023-01-19T12:21:31;253.05;;;237.30;;
67503;SDS011;54351;49.108;1.502;2023-01-19T12:29:18;157.85;;;148.07;;
67503;SDS011;54351;49.108;1.502;2023-01-19T12:32:32;242.77;;;227.15;;
67503;SDS011;54351;49.108;1.502;2023-01-19T12:34:43;228.85;;;214.93;;
67503;SDS011;54351;49.108;1.502;2023-01-19T12:39:58;202.65;;;189.95;;
67503;SDS011;54351;49.108;1.502;2023-01-19T12:42:25;191.63;;;179.82;;
67503;SDS011;54351;49.108;1.502;2023-01-19T12:45:03;199.65;;;187.18;;
67503;SDS011;54351;49.108;1.502;2023-01-19T12:47:30;186.80;;;175.10;;
67503;SDS011;54351;49.108;1.502;2023-01-19T12:49:56;179.13;;;168.02;;
67503;SDS011;54351;49.108;1.502;2023-01-19T12:52:28;174.02;;;163.10;;
67503;SDS011;54351;49.108;1.502;2023-01-19T13:00:06;168.75;;;158.35;;
67503;SDS011;54351;49.108;1.502;2023-01-19T13:02:42;198.77;;;186.25;;
67503;SDS011;54351;49.108;1.502;2023-01-19T13:13:19;202.23;;;189.68;;
67503;SDS011;54351;49.108;1.502;2023-01-19T13:15:46;194.30;;;182.05;;
67503;SDS011;54351;49.108;1.502;2023-01-19T13:18:33;195.25;;;182.98;;
67503;SDS011;54351;49.108;1.502;2023-01-19T13:21:02;205.82;;;193.50;;
67503;SDS011;54351;49.108;1.502;2023-01-19T13:26:23;154.82;;;145.32;;
67503;SDS011;54351;49.108;1.502;2023-01-19T13:29:06;167.25;;;156.85;;
67503;SDS011;54351;49.108;1.502;2023-01-19T13:31:32;221.32;;;207.32;;
67503;SDS011;54351;49.108;1.502;2023-01-19T13:33:59;243.30;;;228.02;;
67503;SDS011;54351;49.108;1.502;2023-01-19T13:36:33;209.95;;;196.70;;
67503;SDS011;54351;49.108;1.502;2023-01-19T13:39:13;226.00;;;211.90;;
67503;SDS011;54351;49.108;1.502;2023-01-19T13:41:40;317.98;;;298.63;;
67503;SDS011;54351;49.108;1.502;2023-01-19T13:44:14;249.32;;;233.50;;
67503;SDS011;54351;49.108;1.502;2023-01-19T13:46:43;248.90;;;233.23;;
67503;SDS011;54351;49.108;1.502;2023-01-19T13:49:15;244.65;;;229.10;;
67503;SDS011;54351;49.108;1.502;2023-01-19T13:51:42;204.65;;;191.30;;
67503;SDS011;54351;49.108;1.502;2023-01-19T13:54:13;206.40;;;193.00;;
67503;SDS011;54351;49.108;1.502;2023-01-19T13:56:45;207.77;;;194.68;;
67503;SDS011;54351;49.108;1.502;2023-01-19T13:59:12;207.55;;;194.00;;
67503;SDS011;54351;49.108;1.502;2023-01-19T14:01:39;205.85;;;192.45;;
67503;SDS011;54351;49.108;1.502;2023-01-19T14:04:05;212.45;;;199.02;;
67503;SDS011;54351;49.108;1.502;2023-01-19T14:06:33;182.20;;;170.20;;
67503;SDS011;54351;49.108;1.502;2023-01-19T14:11:31;199.00;;;186.55;;
67503;SDS011;54351;49.108;1.502;2023-01-19T14:13:57;209.27;;;196.45;;
67503;SDS011;54351;49.108;1.502;2023-01-19T14:16:24;216.07;;;202.55;;
67503;SDS011;54351;49.108;1.502;2023-01-19T14:18:59;217.95;;;204.93;;
67503;SDS011;54351;49.108;1.502;2023-01-19T14:21:35;187.68;;;175.82;;
67503;SDS011;54351;49.108;1.502;2023-01-19T14:24:06;234.98;;;220.63;;
67503;SDS011;54351;49.108;1.502;2023-01-19T14:26:40;211.60;;;198.63;;
67503;SDS011;54351;49.108;1.502;2023-01-19T14:37:04;204.98;;;192.43;;
67503;SDS011;54351;49.108;1.502;2023-01-19T14:39:32;234.25;;;219.60;;
67503;SDS011;54351;49.108;1.502;2023-01-19T14:42:00;205.57;;;192.80;;
67503;SDS011;54351;49.108;1.502;2023-01-19T14:44:28;264.95;;;247.77;;
67503;SDS011;54351;49.108;1.502;2023-01-19T14:46:55;350.83;;;327.08;;
67503;SDS011;54351;49.108;1.502;2023-01-19T14:51:51;257.08;;;240.45;;
67503;SDS011;54351;49.108;1.502;2023-01-19T14:54:18;267.58;;;250.25;;
67503;SDS011;54351;49.108;1.502;2023-01-19T14:56:48;251.70;;;235.35;;
67503;SDS011;54351;49.108;1.502;2023-01-19T14:59:18;255.23;;;238.82;;
67503;SDS011;54351;49.108;1.502;2023-01-19T15:01:44;311.65;;;290.75;;
67503;SDS011;54351;49.108;1.502;2023-01-19T15:04:10;360.17;;;334.80;;
67503;SDS011;54351;49.108;1.502;2023-01-19T15:06:39;383.42;;;355.77;;
67503;SDS011;54351;49.108;1.502;2023-01-19T15:09:10;383.88;;;357.23;;
67503;SDS011;54351;49.108;1.502;2023-01-19T15:11:37;359.83;;;334.60;;
67503;SDS011;54351;49.108;1.502;2023-01-19T15:14:04;276.02;;;257.73;;
67503;SDS011;54351;49.108;1.502;2023-01-19T15:16:31;298.98;;;278.63;;
67503;SDS011;54351;49.108;1.502;2023-01-19T15:18:58;303.35;;;282.77;;